Hauptseite
Satellitenwetter 15-Tage PrognosenKlimaWirbelstürme Blitz FlughäfenFAQ Newsletter Über uns
Wetter : Europa Afrika Nordamerika Südamerika Asien Australien-Ozeanien Andere
Sprachen Kontakt

Newquay Cornwall, England

Breite: 50-26N, Länge: 005-00W, Höhe: 119 m


METAR: EGHQ 161250Z 13018KT CAVOK 13/05 Q1025
short-TAF: EGHQ 161102Z 1612/1621 14017KT 9999 FEW020
long-TAF: fehlend

Zeit: 14:02 (13:02 UTC)

Beobachtung

Neuester Wetterbericht von vor 12 Minuten, um 12:50 UTC  
Wind 18 kt aus Südost
Temperatur 13°C
Luftfeuchtigkeit 58%
Luftdruck 1025 hPa
Sichtweite 10 km oder mehr
keine Wolken unter 1500 m und keine Kumulonimbus oder Gewitterwolken

Maßeinheiten ändern

Prognose

Neuester Wetterbericht von vor 1 Stunde und 48 Minuten, um 11:14 UTC  
Gültige Prognose vom 16 um 12 UTC bis 16 um 21 UTC
Wind 17 kt aus Südost
Sichtweite 10 km oder mehr
leicht bewölkt in der Höhe von 2000 ft
Die Angaben auf diesen Webseiten unterliegen einer Erklärung über den Haftungsausschluss
Wetter : Europa Afrika Nordamerika Südamerika Asien Australien-Ozeanien Andere
Satellitenwetter 15-Tage PrognosenKlimaWirbelstürme Blitz FlughäfenFAQ Sprachen Kontakt Newsletter Über uns